Terminal Aerodrome Forecast
Issued by NWS La Crosse, WI

Home | Current Version | Previous Version | Text Only | Print | Product List | Glossary On
Versions: 1 2 3 4 5 6 7 8 9 10 11 12 13 14 15 16 17 18 19 20 21 22 23 24
000
FTUS43 KARX 282328
TAFLSE
TAF
KLSE 282328Z 2900/2924 13004KT P6SM FEW200
     FM290800 13003KT 3SM BR SCT007
     FM291100 VRB03KT 2SM BR BKN007
     FM291400 17007KT P6SM FEW040 FEW200=

USA.gov is the U.S. government's official web portal to all federal, state and local government web resources and services.